Data for 07/14/2016

Time Sea-Level Adjusted Pressure Absolute Pressure Temperature Relative Humidity Dew Point   
(mb) (inHg) (mb) (inHg) (C) (F) (%) (C) (F)
00:05 1025 30.27 854 25.22 11.4 52.5 55 2.8 37
00:10 1025 30.27 854 25.22 11.3 52.3 55 2.7 36.9
00:15 1025 30.27 854 25.22 11.2 52.2 55 2.4 36.4
00:20 1025 30.27 854 25.22 11.5 52.6 54 2.4 36.4
00:25 1025 30.27 854 25.22 11.5 52.8 52 2.1 35.8
00:30 1025 30.27 854 25.22 11.7 53.1 51 2.1 35.7
00:35 1025 30.27 854 25.22 11.8 53.2 52 2.2 35.9
00:40 1025 30.27 854 25.22 11.8 53.2 52 2.3 36.1
00:45 1025 30.27 854 25.22 11.5 52.8 53 2.3 36.2
00:50 1025 30.27 854 25.22 11.4 52.5 53 2.3 36.2
00:55 1025 30.27 854 25.22 11.2 52.1 54 2.4 36.3
01:00 1025 30.27 854 25.22 11 51.9 55 2.5 36.5
01:05 1025 30.27 854 25.22 11 51.7 54 2.1 35.8
01:10 1025 30.27 854 25.22 11.1 52 55 2.5 36.5
01:15 1025 30.27 854 25.22 10.9 51.6 56 2.4 36.3
01:20 1025 30.27 854 25.22 10.8 51.4 55 2.3 36.1
01:25 1025 30.27 854 25.22 10.9 51.7 55 2.3 36.1
01:30 1025 30.27 854 25.22 10.8 51.4 56 2.3 36.2
01:35 1025 30.27 854 25.22 10.7 51.3 56 2.3 36.2
01:40 1025 30.27 854 25.22 10.7 51.3 55 2.2 35.9
01:45 1025 30.27 854 25.22 10.7 51.3 55 2.2 35.9
01:50 1025 30.27 854 25.22 10.8 51.5 55 2.1 35.8
01:55 1025 30.27 854 25.22 10.8 51.4 55 2.2 35.9
02:00 1025 30.27 854 25.22 10.8 51.4 55 2.2 36
02:05 1025 30.27 854 25.22 10.6 51.1 55 2.1 35.8
02:10 1025 30.27 854 25.22 10.5 50.9 56 2.2 35.9
02:15 1025 30.27 854 25.22 10.4 50.7 57 2.2 36
02:20 1025 30.27 854 25.22 10.1 50.2 58 2.4 36.3
02:25 1025 30.27 854 25.22 10.1 50.3 59 2.5 36.5
02:30 1025 30.27 854 25.22 9.9 49.8 58 2.1 35.7
02:35 1025 30.27 854 25.22 10.3 50.5 56 1.9 35.4
02:40 1025 30.27 854 25.22 10.4 50.6 56 2 35.6
02:45 1025 30.27 854 25.22 10.5 50.9 54 1.7 35.1
02:50 1025 30.27 854 25.22 10.5 50.9 56 2.2 36
02:55 1025 30.27 854 25.22 10.2 50.3 57 2 35.6
03:00 1025 30.27 854 25.22 10.2 50.4 57 2 35.6
03:05 1025 30.27 854 25.22 10.1 50.1 57 2 35.7
03:10 1025 30.27 854 25.22 9.9 49.9 57 1.8 35.3
03:15 1025 30.27 854 25.22 10.1 50.2 56 1.8 35.3
03:20 1025 30.27 854 25.22 10.2 50.4 56 1.8 35.3
03:25 1025 30.27 854 25.22 10.2 50.4 57 2 35.6
03:30 1025 30.27 854 25.22 10.1 50.1 57 2.1 35.7
03:35 1025 30.27 854 25.22 9.9 49.9 57 1.9 35.5
03:40 1025 30.27 854 25.22 9.8 49.7 58 2 35.6
03:45 1025 30.27 854 25.22 9.7 49.4 60 2.3 36.1
03:50 1025 30.27 854 25.22 9.4 48.8 61 2.2 35.9
03:55 1025 30.27 854 25.22 9.2 48.5 61 2.2 35.9
04:00 1025 30.27 854 25.22 9.1 48.3 62 2.2 35.9
04:05 1025 30.27 854 25.22 9 48.2 62 2.1 35.9
04:10 1025 30.27 854 25.22 9.1 48.3 61 1.9 35.4
04:15 1025 30.27 854 25.22 9.3 48.7 61 2.1 35.8
04:20 1025 30.27 854 25.22 9.3 48.8 60 1.9 35.4
04:25 1025 30.27 854 25.22 9.6 49.2 58 1.9 35.3
04:30 1025 30.27 854 25.22 9.8 49.6 57 1.8 35.2
04:35 1025 30.27 854 25.22 10 50 58 2.2 36
04:40 1025 30.27 854 25.22 9.9 49.7 58 2 35.7
04:45 1025 30.27 854 25.22 9.6 49.4 59 2.1 35.7
04:50 1025 30.27 854 25.22 9.5 49 61 2.3 36.1
04:55 1025 30.27 854 25.22 9.3 48.8 59 1.7 35.1
05:00 1025 30.27 854 25.22 9.6 49.3 58 1.7 35
05:05 1025 30.27 854 25.22 9.8 49.6 58 1.8 35.3
05:10 1025 30.27 854 25.22 9.6 49.3 60 2.2 35.9
05:15 1025 30.27 854 25.22 9.6 49.3 57 1.6 34.9
05:20 1025 30.27 854 25.22 9.9 49.8 58 2 35.7
05:25 1025 30.27 854 25.22 9.7 49.5 59 2 35.7
05:30 1025 30.27 854 25.22 9.7 49.4 59 2.1 35.8
05:35 1025 30.27 854 25.22 9.8 49.6 58 2 35.5
05:40 1025 30.27 854 25.22 10 50 57 2 35.6
05:45 1025 30.27 854 25.22 10.1 50.1 59 2.4 36.3
05:50 1025 30.27 854 25.22 10.2 50.3 58 2.4 36.3
05:55 1025 30.27 855 25.25 10.2 50.3 59 2.5 36.5
06:00 1025 30.27 854 25.22 10.2 50.4 57 2.2 35.9
06:05 1025 30.27 854 25.22 10.3 50.5 58 2.5 36.4
06:10 1025 30.27 854 25.22 10.3 50.5 57 2.3 36.1
06:15 1025 30.27 854 25.22 10.5 51 58 2.8 37
06:20 1025 30.27 854 25.22 10.6 51.1 57 2.5 36.5
06:25 1025 30.27 854 25.22 10.9 51.6 54 2.1 35.7
06:30 1025 30.27 855 25.25 11.3 52.4 54 2.5 36.5
06:35 1025 30.27 855 25.25 11.9 53.5 53 2.8 37
06:40 1025 30.27 855 25.25 12.3 54.2 51 2.6 36.7
06:45 1025 30.27 855 25.25 12.7 54.9 51 3 37.5
06:50 1025 30.27 855 25.25 13.3 55.9 49 3 37.4
06:55 1025 30.27 855 25.25 13.3 56 49 2.9 37.3
07:00 1025 30.27 855 25.25 13.8 56.9 48 3.2 37.7
07:05 1025 30.27 855 25.25 14.2 57.6 48 3.5 38.3
07:10 1025 30.27 855 25.25 14.2 57.6 49 3.8 38.8
07:15 1025 30.27 855 25.25 14.6 58.3 45 3 37.4
07:20 1025 30.27 855 25.25 14.9 58.8 45 3.2 37.8
07:25 1025 30.27 855 25.25 15.1 59.2 44 2.9 37.2
07:30 1025 30.27 855 25.25 15.3 59.6 43 3 37.5
07:35 1025 30.27 855 25.25 15.8 60.5 41 2.7 36.9
07:40 1025 30.27 855 25.25 16.3 61.3 40 2.7 36.8
07:45 1025 30.27 855 25.25 16.6 61.8 39 2.6 36.7
07:50 1025 30.27 855 25.25 16.6 61.9 39 2.7 36.8
07:55 1025 30.27 855 25.25 17 62.5 38 2.5 36.6
08:00 1025 30.27 855 25.25 17.4 63.2 37 2.5 36.5
08:05 1025 30.27 855 25.25 17.6 63.7 37 2.9 37.3
08:10 1025 30.27 855 25.25 17.1 62.8 38 2.6 36.7
08:15 1025 30.27 855 25.25 17.2 62.9 37 2.5 36.5
08:20 1025 30.27 854 25.22 17.5 63.5 36 2.5 36.4
08:25 1025 30.27 854 25.22 17.8 64 36 2.6 36.7
08:30 1025 30.27 854 25.22 18 64.4 35 2.4 36.3
08:35 1025 30.27 854 25.22 18.4 65.1 33 1.8 35.3
08:40 1025 30.27 854 25.22 18.2 64.7 35 2.6 36.7
08:45 1025 30.27 854 25.22 18.2 64.8 36 3.1 37.6
08:50 1025 30.27 854 25.22 17.7 63.8 38 3.3 38
08:55 1025 30.27 854 25.22 18.3 65 35 2.9 37.2
09:00 1025 30.27 854 25.22 19 66.2 34 3.1 37.6
09:05 1025 30.27 854 25.22 18.5 65.2 37 3.5 38.3
09:10 1025 30.27 854 25.22 18.2 64.8 35 2.7 36.9
09:15 1025 30.27 854 25.22 18.4 65.1 35 2.9 37.3
09:20 1025 30.27 854 25.22 18.6 65.5 36 3.5 38.3
09:25 1025 30.27 854 25.22 18.4 65.1 35 2.9 37.2
09:30 1025 30.27 854 25.22 19.1 66.3 33 2.7 36.8
09:35 1025 30.27 854 25.22 19.6 67.3 34 3.4 38.1
09:40 1025 30.27 854 25.22 19.9 67.7 33 3.4 38.2
09:45 1025 30.27 854 25.22 20 68.1 33 3.4 38
09:50 1025 30.27 854 25.22 19.3 66.7 35 3.7 38.6
09:55 1025 30.27 854 25.22 19 66.3 35 3.3 38
10:00 1025 30.27 854 25.22 20 67.9 33 3.3 38
10:05 1025 30.27 854 25.22 19.5 67 35 3.8 38.8
10:10 1025 30.27 854 25.22 19.8 67.7 32 2.6 36.7
10:15 1025 30.27 854 25.22 20.5 68.9 32 3.4 38.1
10:20 1025 30.27 854 25.22 21.1 69.9 31 3.7 38.6
10:25 1025 30.27 854 25.22 20.5 68.8 31 3 37.5
10:30 1025 30.27 854 25.22 20.5 68.8 33 3.8 38.9
10:35 1025 30.27 854 25.22 20.3 68.5 33 3.6 38.5
10:40 1025 30.27 854 25.22 20.5 68.9 33 3.9 38.9
10:45 1025 30.27 854 25.22 21 69.7 30 3.1 37.5
10:50 1025 30.27 854 25.22 21.4 70.5 31 3.7 38.6
10:55 1025 30.27 854 25.22 20.8 69.4 30 2.9 37.2
11:00 1025 30.27 854 25.22 21.3 70.3 28 2.3 36.2
11:05 1025 30.27 854 25.22 21.4 70.5 28 2.6 36.6
11:10 1025 30.27 854 25.22 21.6 70.9 30 3.3 37.9
11:15 1025 30.27 854 25.22 21.5 70.7 29 3 37.5
11:20 1025 30.27 854 25.22 21.2 70.1 29 2.7 36.9
11:25 1025 30.27 854 25.22 21.8 71.3 28 2.5 36.6
11:30 1025 30.27 854 25.22 22.3 72.1 26 1.9 35.5
11:35 1025 30.27 854 25.22 22.5 72.5 28 3.4 38.1
11:40 1025 30.27 854 25.22 22.3 72.2 27 2.5 36.5
11:45 1025 30.27 854 25.22 21.8 71.2 27 2.2 36
11:50 1025 30.27 854 25.22 22.2 71.9 26 1.9 35.4
11:55 1025 30.27 854 25.22 22.9 73.2 26 2.5 36.5
12:00 1025 30.27 854 25.22 22.8 73 25 1.9 35.4
12:05 1025 30.27 854 25.22 22.5 72.5 26 2.3 36.1
12:10 1025 30.27 854 25.22 22.5 72.4 25 1.8 35.2
12:15 1024 30.24 854 25.22 22.2 72 27 2.4 36.3
12:20 1024 30.24 854 25.22 21.9 71.3 27 2.1 35.8
12:25 1024 30.24 854 25.22 22 71.7 25 1.5 34.7
12:30 1024 30.24 854 25.22 22.3 72.2 25 1.3 34.3
12:35 1024 30.24 854 25.22 22.9 73.3 24 1.7 35.1
12:40 1024 30.24 854 25.22 23 73.3 25 2 35.6
12:45 1024 30.24 853 25.19 22.9 73.1 25 2.1 35.8
12:50 1024 30.24 853 25.19 23.2 73.8 23 1.3 34.4
12:55 1024 30.24 853 25.19 23.7 74.6 24 2 35.5
13:00 1024 30.24 853 25.19 23.3 73.9 25 2.2 36
13:05 1024 30.24 853 25.19 23.3 73.9 23 1.1 34
13:10 1024 30.24 853 25.19 23.2 73.8 23 1.3 34.3
13:15 1024 30.24 853 25.19 23.5 74.3 23 1.4 34.5
13:20 1024 30.24 853 25.19 23.5 74.4 25 2.3 36.2
13:25 1024 30.24 853 25.19 23.6 74.4 23 1.6 34.9
13:30 1024 30.24 853 25.19 24 75.2 23 2 35.7
13:35 1024 30.24 853 25.19 24 75.3 24 2.3 36.1
13:40 1024 30.24 853 25.19 24.3 75.7 23 1.8 35.3
13:45 1024 30.24 853 25.19 24.1 75.5 23 2 35.6
13:50 1024 30.24 853 25.19 24.2 75.6 24 2.5 36.5
13:55 1024 30.24 853 25.19 23.9 75.1 23 1.8 35.2
14:00 1024 30.24 853 25.19 24.5 76.1 23 2.2 35.9
14:05 1024 30.24 853 25.19 25.1 77.1 21 1.2 34.1
14:10 1024 30.24 853 25.19 25.2 77.3 20 1 33.8
14:15 1024 30.24 853 25.19 24.9 76.9 22 1.9 35.5
14:20 1024 30.24 853 25.19 25 76.9 20 0.5 33
14:25 1023 30.21 853 25.19 24.7 76.4 21 1.3 34.3
14:30 1023 30.21 853 25.19 24.6 76.3 22 1.5 34.7
14:35 1023 30.21 853 25.19 24.5 76.1 21 0.9 33.7
14:40 1023 30.21 852 25.16 24.3 75.8 20 0.1 32.1
14:45 1023 30.21 852 25.16 24.6 76.4 20 0.8 33.4
14:50 1023 30.21 852 25.16 24.8 76.6 19 -0.1 31.8
14:55 1023 30.21 852 25.16 25 76.9 18 -0.9 30.3
15:00 1023 30.21 852 25.16 24.9 76.8 18 -0.5 31.1
15:05 1023 30.21 852 25.16 25.1 77.2 18 -0.9 30.4
15:10 1023 30.21 852 25.16 24.4 76 17 -1.8 28.8
15:15 1023 30.21 852 25.16 24.2 75.5 19 -0.9 30.4
15:20 1023 30.21 852 25.16 24.9 76.8 17 -2 28.4
15:25 1023 30.21 852 25.16 25.5 77.8 18 -0.3 31.5
15:30 1023 30.21 852 25.16 25.2 77.3 18 -0.6 30.9
15:35 1023 30.21 852 25.16 24.6 76.3 19 -0.3 31.5
15:40 1023 30.21 852 25.16 24.4 75.9 18 -1 30.2
15:45 1023 30.21 852 25.16 25.3 77.5 18 -0.4 31.2
15:50 1023 30.21 852 25.16 24.8 76.7 19 -0.1 31.8
15:55 1023 30.21 852 25.16 24.5 76.2 20 0.1 32.1
16:00 1023 30.21 852 25.16 24.2 75.6 19 -0.3 31.5
16:05 1023 30.21 852 25.16 24.9 76.8 18 -0.9 30.5
16:10 1023 30.21 852 25.16 24.8 76.6 18 -0.8 30.6
16:15 1023 30.21 852 25.16 24.2 75.6 18 -1 30.2
16:20 1023 30.21 852 25.16 23.8 74.9 19 -1.3 29.7
16:25 1023 30.21 852 25.16 24.4 75.9 18 -1.2 29.8
16:30 1023 30.21 852 25.16 24.6 76.2 18 -0.9 30.4
16:35 1023 30.21 852 25.16 23.9 75.1 19 -0.7 30.7
16:40 1023 30.21 852 25.16 24.6 76.2 18 -1.1 30.1
16:45 1023 30.21 852 25.16 25.5 78 18 -0.3 31.5
16:50 1023 30.21 852 25.16 25.2 77.4 18 -0.4 31.4
16:55 1023 30.21 852 25.16 24.4 76 18 -1 30.2
17:00 1023 30.21 852 25.16 24.6 76.3 19 -0.6 30.9
17:05 1023 30.21 852 25.16 24 75.3 19 -1.1 30.1
17:10 1022 30.18 852 25.16 24.2 75.6 19 -0.7 30.7
17:15 1022 30.18 852 25.16 24.5 76.1 19 -0.7 30.7
17:20 1022 30.18 852 25.16 24 75.3 19 -0.7 30.7
17:25 1022 30.18 852 25.16 24 75.2 19 -1.2 29.9
17:30 1022 30.18 852 25.16 24.1 75.5 18 -1.4 29.5
17:35 1022 30.18 852 25.16 24.5 76.1 18 -1.1 30
17:40 1022 30.18 852 25.16 24.9 76.9 18 -0.7 30.7
17:45 1022 30.18 852 25.16 24.5 76.1 18 -0.8 30.5
17:50 1022 30.18 851 25.13 24.3 75.8 18 -1.2 29.9
17:55 1022 30.18 851 25.13 24.6 76.3 18 -1.3 29.7
18:00 1022 30.18 851 25.13 24.6 76.2 18 -1.1 30.1
18:05 1022 30.18 851 25.13 24.7 76.4 18 -1.1 30
18:10 1022 30.18 851 25.13 24.4 75.9 18 -1 30.2
18:15 1022 30.18 851 25.13 24.1 75.3 18 -1.2 29.9
18:20 1022 30.18 851 25.13 24.2 75.5 18 -1.3 29.7
18:25 1022 30.18 851 25.13 23.8 74.9 19 -1.2 29.8
18:30 1022 30.18 851 25.13 24 75.1 18 -1.2 29.8
18:35 1022 30.18 851 25.13 23.9 75.1 18 -1.6 29.2
18:40 1022 30.18 851 25.13 23.7 74.7 18 -1.6 29.1
18:45 1022 30.18 851 25.13 23.6 74.5 18 -1.6 29
18:50 1022 30.18 851 25.13 23.5 74.3 19 -1.3 29.7
18:55 1022 30.18 851 25.13 23.4 74 19 -1 30.2
19:00 1022 30.18 851 25.13 23.2 73.8 19 -1.3 29.6
19:05 1022 30.18 851 25.13 23.1 73.6 19 -1.2 29.8
19:10 1022 30.18 851 25.13 23.1 73.6 18 -1.9 28.5
19:15 1022 30.18 851 25.13 23.1 73.6 19 -1.9 28.6
19:20 1022 30.18 851 25.13 23 73.4 19 -1.7 28.9
19:25 1022 30.18 851 25.13 23 73.3 19 -1.4 29.4
19:30 1022 30.18 851 25.13 22.8 73.1 19 -1.7 28.9
19:35 1022 30.18 851 25.13 22.8 73 20 -1.4 29.5
19:40 1022 30.18 851 25.13 22.6 72.6 20 -1.1 30
19:45 1022 30.18 851 25.13 22.4 72.3 20 -1.2 29.8
19:50 1022 30.18 851 25.13 22.2 72 20 -1.7 28.9
19:55 1022 30.18 851 25.13 22.2 71.9 22 -0.4 31.3
20:00 1022 30.18 851 25.13 22.2 71.9 24 0.7 33.3
20:05 1022 30.18 851 25.13 21.8 71.2 31 4.1 39.4
20:10 1022 30.18 851 25.13 20.3 68.6 39 6.2 43.1
20:15 1022 30.18 851 25.13 19.5 67.1 43 6.6 43.8
20:20 1022 30.18 851 25.13 19.2 66.6 44 6.8 44.3
20:25 1022 30.18 852 25.16 18.6 65.4 47 7.2 45
20:30 1022 30.18 852 25.16 18.1 64.6 43 5.4 41.7
20:35 1022 30.18 852 25.16 17.7 63.9 39 3.7 38.7
20:40 1023 30.21 852 25.16 17.4 63.2 39 3.5 38.3
20:45 1023 30.21 852 25.16 17.3 63.2 36 2.1 35.9
20:50 1023 30.21 852 25.16 17.7 63.9 35 2.3 36.2
20:55 1023 30.21 852 25.16 18 64.4 34 2 35.6
21:00 1023 30.21 852 25.16 18.2 64.7 34 2 35.7
21:05 1023 30.21 852 25.16 18 64.3 34 2.1 35.7
21:10 1023 30.21 852 25.16 18.2 64.7 35 2.5 36.5
21:15 1023 30.21 852 25.16 18.1 64.6 35 2.5 36.4
21:20 1023 30.21 852 25.16 18.2 64.7 35 2.5 36.4
21:25 1023 30.21 852 25.16 18.3 64.9 34 2.3 36.1
21:30 1023 30.21 852 25.16 18.3 65 34 2.2 35.9
21:35 1023 30.21 852 25.16 18.3 64.9 34 2.3 36.1
21:40 1023 30.21 852 25.16 18.1 64.5 35 2.3 36.2
21:45 1023 30.21 852 25.16 17.9 64.2 35 2.5 36.6
21:50 1023 30.21 852 25.16 17.8 64 36 2.6 36.6
21:55 1023 30.21 852 25.16 17.7 63.9 36 2.6 36.7
22:00 1023 30.21 852 25.16 17.6 63.6 36 2.5 36.5
22:05 1023 30.21 852 25.16 17.5 63.5 36 2.6 36.6
22:10 1023 30.21 852 25.16 17.4 63.4 36 2.5 36.5
22:15 1023 30.21 852 25.16 17.4 63.3 37 2.6 36.7
22:20 1023 30.21 852 25.16 17.4 63.2 37 2.5 36.6
22:25 1023 30.21 852 25.16 17.3 63.1 37 2.5 36.6
22:30 1023 30.21 852 25.16 17.3 63.2 36 2.4 36.3
22:35 1023 30.21 852 25.16 17.4 63.2 37 2.6 36.7
22:40 1023 30.21 852 25.16 17.3 63.1 37 2.5 36.5
22:45 1023 30.21 852 25.16 17.3 63.2 38 2.8 37.1
22:50 1023 30.21 852 25.16 17.2 63 38 2.8 37
22:55 1023 30.21 852 25.16 17.2 62.9 38 2.8 37
23:00 1023 30.21 852 25.16 17.1 62.8 39 3 37.4
23:05 1023 30.21 852 25.16 17 62.7 39 3.2 37.7
23:10 1023 30.21 852 25.16 17 62.5 40 3.3 37.9
23:15 1023 30.21 852 25.16 16.9 62.5 40 3.5 38.2
23:20 1023 30.21 852 25.16 16.9 62.3 41 3.6 38.4
23:25 1023 30.21 852 25.16 16.7 62.1 42 3.9 39
23:30 1023 30.21 852 25.16 16.7 62 42 4 39.1
23:35 1023 30.21 852 25.16 16.7 62 43 4.3 39.7
23:40 1023 30.21 852 25.16 16.6 61.8 44 4.3 39.8
23:45 1023 30.21 852 25.16 16.6 61.8 44 4.5 40.1
23:50 1023 30.21 852 25.16 16.5 61.6 45 4.6 40.3
23:55 1023 30.21 852 25.16 16.4 61.5 46 4.7 40.5
24:00 1023 30.21 852 25.16 16.3 61.4 46 4.9 40.8